Hanover, New Hampshire
Current Conditions -  °F | °C
As of 12:53 PM on Sunday 21 Dec 2014 (Local Time) from KLEB Reporting Station
Light Snow Light Snow  
Wind Chill: 27°   Ceiling: 4700
Heat Index: 27°   Visibility: 2.5mi
Dew Point: 24°   Wind: 0mph
Humidity: 89%   Direction: NA
Pressure: 30.3"   Gusts: NA
Location:  43.7°N, 72.29°W
Report Text: KLEB 211753Z 00000KT 2 1/2SM -SN BR OVC047 M03/M04 A3030 RMK AO2 SLP273 P0000 60002 T10281044 11028 21044 56012
Loading
Personal Weather Stations






























Interactive Weather Map New forecast layout! Learn more

10-Day Weather Forecast

Advertisements
Track Severe Weather on mobile